Time;durP1;ratioP1;P1;durP2;ratioP2;P2;SDS_P1;SDS_P2;PMS_P1;PMS_P2;Temp;Humidity;BMP_temperature;BMP_pressure;BME280_temperature;BME280_humidity;BME280_pressure;Samples;Min_cycle;Max_cycle;Signal;HPM_P1;HPM_P2
2022/02/27 05:01:41;;;;;;;8.03;6.47;;;1.40;99.90;;;;;;5356743;23;20523;-66
2022/02/27 05:04:08;;;;;;;11.60;7.60;;;1.50;99.90;;;;;;4956042;28;20533;-65
2022/02/27 05:06:34;;;;;;;10.27;6.17;;;1.50;99.90;;;;;;4955884;28;20470;-65
2022/02/27 05:09:01;;;;;;;7.90;5.63;;;1.50;99.90;;;;;;4955665;29;20538;-66
2022/02/27 05:11:28;;;;;;;11.03;6.63;;;1.50;99.90;;;;;;4955760;29;20476;-65
2022/02/27 05:13:55;;;;;;;11.83;7.20;;;1.50;99.90;;;;;;4957346;28;20458;-66
2022/02/27 05:16:21;;;;;;;12.90;6.40;;;1.50;99.90;;;;;;4956367;28;20458;-65
2022/02/27 05:18:49;;;;;;;11.53;6.23;;;1.50;99.90;;;;;;4955964;28;20466;-66
2022/02/27 05:21:16;;;;;;;10.30;6.23;;;1.50;99.90;;;;;;4956007;28;20558;-65
2022/02/27 05:23:44;;;;;;;10.00;6.57;;;1.50;99.90;;;;;;4957531;28;20528;-64
2022/02/27 05:26:11;;;;;;;12.00;6.47;;;1.50;99.90;;;;;;4962141;28;20496;-65
2022/02/27 05:28:38;;;;;;;11.70;7.03;;;1.50;99.90;;;;;;4963234;28;20463;-64
2022/02/27 05:31:04;;;;;;;12.67;7.37;;;1.50;99.90;;;;;;4964752;28;20477;-66
2022/02/27 05:33:31;;;;;;;12.10;7.37;;;1.40;99.90;;;;;;4963143;28;20453;-65
2022/02/27 05:35:59;;;;;;;12.97;7.00;;;1.40;99.90;;;;;;4963428;28;20460;-64
2022/02/27 05:38:26;;;;;;;15.07;7.50;;;1.40;99.90;;;;;;4963123;28;20512;-65
2022/02/27 05:40:53;;;;;;;13.80;6.67;;;1.50;99.90;;;;;;4962610;28;20486;-66
2022/02/27 05:43:20;;;;;;;10.57;6.70;;;1.50;99.90;;;;;;4962182;28;20556;-66
2022/02/27 05:45:47;;;;;;;9.97;6.97;;;1.50;99.90;;;;;;4962631;28;20458;-65
2022/02/27 05:48:13;;;;;;;11.23;7.10;;;1.40;99.90;;;;;;4962345;28;20460;-66
2022/02/27 05:50:40;;;;;;;13.83;7.53;;;1.30;99.90;;;;;;4962684;28;20487;-65
2022/02/27 05:53:08;;;;;;;11.17;7.27;;;1.30;99.90;;;;;;4961868;28;20458;-66
2022/02/27 05:55:35;;;;;;;10.47;7.07;;;1.30;99.90;;;;;;4962245;28;20458;-66
2022/02/27 05:58:02;;;;;;;11.13;7.20;;;1.30;99.90;;;;;;4962438;28;20836;-67
2022/02/27 06:00:29;;;;;;;11.63;8.60;;;1.30;99.90;;;;;;4961366;28;20476;-66
2022/02/27 06:02:55;;;;;;;11.90;7.20;;;1.30;99.90;;;;;;4959977;28;20437;-67
2022/02/27 06:05:22;;;;;;;14.30;8.30;;;1.30;99.90;;;;;;4959242;28;20491;-66
2022/02/27 06:07:49;;;;;;;13.17;8.50;;;1.20;99.90;;;;;;4959486;28;20493;-65
2022/02/27 06:10:17;;;;;;;14.50;8.23;;;1.10;99.90;;;;;;4958967;28;20460;-65
2022/02/27 06:12:47;;;;;;;14.43;8.30;;;1.10;99.90;;;;;;4958856;28;20916;-67
2022/02/27 06:15:14;;;;;;;14.57;8.50;;;1.00;99.90;;;;;;4959426;28;20917;-65
2022/02/27 06:17:41;;;;;;;14.07;8.07;;;1.00;99.90;;;;;;4959085;28;20464;-66
2022/02/27 06:20:09;;;;;;;11.20;8.53;;;1.00;99.90;;;;;;4958621;28;20808;-67
2022/02/27 06:22:40;;;;;;;11.90;8.10;;;1.00;99.90;;;;;;4959044;28;20461;-66
2022/02/27 06:25:07;;;;;;;11.43;8.27;;;1.00;99.90;;;;;;4958867;28;20470;-67
2022/02/27 06:27:37;;;;;;;15.93;8.80;;;1.00;99.90;;;;;;4958678;28;20456;-65
2022/02/27 06:30:04;;;;;;;11.90;8.87;;;1.00;99.90;;;;;;4959111;28;20470;-66
2022/02/27 06:32:31;;;;;;;11.97;7.47;;;1.00;99.90;;;;;;4958555;28;20482;-66
2022/02/27 06:34:58;;;;;;;13.10;8.37;;;1.10;99.90;;;;;;4958292;28;20454;-66
2022/02/27 06:37:24;;;;;;;15.13;8.60;;;1.10;99.90;;;;;;4958544;28;20947;-66
2022/02/27 06:39:51;;;;;;;11.80;8.70;;;1.20;99.90;;;;;;4958595;28;20462;-66
2022/02/27 06:42:18;;;;;;;14.07;8.73;;;1.20;99.90;;;;;;4958363;28;20483;-66
2022/02/27 06:44:46;;;;;;;10.20;7.90;;;1.20;99.90;;;;;;4958264;28;20485;-67
2022/02/27 06:47:12;;;;;;;13.93;8.10;;;1.20;99.90;;;;;;4959833;28;20462;-66
2022/02/27 06:49:39;;;;;;;14.30;8.50;;;1.30;99.90;;;;;;4958070;28;20461;-66
2022/02/27 06:52:06;;;;;;;9.60;7.30;;;1.30;99.90;;;;;;4958138;28;20487;-65
2022/02/27 06:54:33;;;;;;;11.27;8.00;;;1.30;99.90;;;;;;4958115;28;20447;-66
2022/02/27 06:57:00;;;;;;;12.10;8.53;;;1.30;99.90;;;;;;4958123;28;20854;-66
2022/02/27 06:59:27;;;;;;;12.13;9.00;;;1.40;99.90;;;;;;4958324;28;20483;-66
2022/02/27 07:01:55;;;;;;;15.13;9.23;;;1.50;99.90;;;;;;4957871;28;20495;-67
2022/02/27 07:04:21;;;;;;;8.80;7.67;;;1.60;99.90;;;;;;4957859;28;20485;-66
2022/02/27 07:06:50;;;;;;;10.10;7.73;;;1.60;99.90;;;;;;4958256;28;20456;-67
2022/02/27 07:09:17;;;;;;;15.03;7.73;;;1.80;99.90;;;;;;4958296;28;20477;-67
2022/02/27 07:11:44;;;;;;;11.83;7.70;;;2.10;99.90;;;;;;4957903;28;20512;-67
2022/02/27 07:14:11;;;;;;;10.10;7.20;;;2.90;99.90;;;;;;4958882;28;20458;-66
2022/02/27 07:16:38;;;;;;;10.63;6.80;;;3.50;99.90;;;;;;4957874;28;20456;-66
2022/02/27 07:19:06;;;;;;;7.97;6.40;;;4.40;99.90;;;;;;4958207;28;20513;-69
2022/02/27 07:21:33;;;;;;;8.50;6.60;;;5.10;99.90;;;;;;4958154;28;20479;-66
2022/02/27 07:23:59;;;;;;;9.33;6.03;;;6.10;99.90;;;;;;4958016;28;20479;-65
2022/02/27 07:26:26;;;;;;;7.50;6.10;;;6.70;99.90;;;;;;4957586;28;20455;-65
2022/02/27 07:28:53;;;;;;;7.80;6.07;;;7.70;99.90;;;;;;4957439;28;20550;-66
2022/02/27 07:31:21;;;;;;;8.57;6.20;;;7.90;99.90;;;;;;4957183;28;20487;-66
2022/02/27 07:33:47;;;;;;;8.70;6.10;;;8.10;99.90;;;;;;4957499;28;20460;-67
2022/02/27 07:36:16;;;;;;;7.27;5.80;;;8.30;99.90;;;;;;4957428;28;20448;-66
2022/02/27 07:38:43;;;;;;;7.10;6.23;;;9.00;99.90;;;;;;4957027;28;20455;-65
2022/02/27 07:41:09;;;;;;;9.07;6.50;;;9.40;99.90;;;;;;4957385;28;20476;-66
2022/02/27 07:43:36;;;;;;;8.70;7.07;;;9.80;99.90;;;;;;4957112;28;20459;-65
2022/02/27 07:46:03;;;;;;;9.97;6.17;;;10.00;97.30;;;;;;4956466;28;20857;-66
2022/02/27 07:48:30;;;;;;;8.13;6.50;;;10.80;96.50;;;;;;4957136;28;20490;-66
2022/02/27 07:50:57;;;;;;;8.70;6.87;;;11.10;94.70;;;;;;4956982;28;20554;-65
2022/02/27 07:53:25;;;;;;;12.43;6.57;;;11.50;93.40;;;;;;4956624;28;20550;-66
2022/02/27 07:55:51;;;;;;;7.60;6.40;;;11.60;93.00;;;;;;4956653;28;20463;-66
2022/02/27 07:58:18;;;;;;;9.40;6.30;;;12.20;92.00;;;;;;4956703;28;20456;-66
2022/02/27 08:00:45;;;;;;;9.40;5.80;;;12.80;91.10;;;;;;4956324;28;20491;-65
2022/02/27 08:03:11;;;;;;;8.80;6.40;;;12.90;90.10;;;;;;4956622;28;20463;-67
2022/02/27 08:05:40;;;;;;;8.47;6.57;;;13.40;86.20;;;;;;4956540;28;20512;-66
2022/02/27 08:08:07;;;;;;;6.20;5.70;;;13.90;82.70;;;;;;4956506;28;20606;-66
2022/02/27 08:10:35;;;;;;;8.37;6.07;;;14.30;80.20;;;;;;4956507;28;20475;-66
2022/02/27 08:13:02;;;;;;;7.33;6.23;;;14.10;81.80;;;;;;4956699;28;20471;-66
2022/02/27 08:15:28;;;;;;;7.10;6.40;;;14.80;78.50;;;;;;4956721;28;20459;-66
2022/02/27 08:17:55;;;;;;;7.88;6.03;;;15.20;76.70;;;;;;4959918;28;20459;-66
2022/02/27 08:20:22;;;;;;;7.33;6.57;;;15.80;74.00;;;;;;4959168;28;20207;-66
2022/02/27 08:22:48;;;;;;;7.23;6.53;;;16.20;69.50;;;;;;4956307;28;20464;-65
2022/02/27 08:25:15;;;;;;;6.87;6.10;;;16.30;68.00;;;;;;4956201;28;20476;-65
2022/02/27 08:27:44;;;;;;;8.63;7.13;;;16.70;66.40;;;;;;4956281;28;20468;-66
2022/02/27 08:30:11;;;;;;;8.23;7.40;;;16.60;66.40;;;;;;4956126;28;20471;-65
2022/02/27 08:32:38;;;;;;;7.03;6.43;;;16.40;65.70;;;;;;4956288;28;20464;-65
2022/02/27 08:35:06;;;;;;;8.10;7.30;;;16.40;65.90;;;;;;4956116;28;20456;-65
2022/02/27 08:37:33;;;;;;;9.90;6.90;;;16.60;64.50;;;;;;4956035;28;20463;-66
2022/02/27 08:39:59;;;;;;;7.30;6.53;;;17.00;62.90;;;;;;4956201;28;20463;-66
2022/02/27 08:42:28;;;;;;;8.17;7.23;;;17.30;62.70;;;;;;4955944;28;20475;-65
2022/02/27 08:44:56;;;;;;;9.27;6.60;;;17.30;63.00;;;;;;4955692;28;20887;-65
2022/02/27 08:47:23;;;;;;;8.20;6.80;;;17.40;63.30;;;;;;4955967;28;20510;-65
2022/02/27 08:49:50;;;;;;;7.47;6.67;;;17.90;61.30;;;;;;4955912;28;20463;-65
2022/02/27 08:52:16;;;;;;;8.20;7.03;;;18.30;58.70;;;;;;4955586;28;20483;-67
2022/02/27 08:54:45;;;;;;;7.10;6.43;;;18.60;59.70;;;;;;4956014;28;20819;-67
2022/02/27 08:57:11;;;;;;;7.43;6.73;;;18.80;58.60;;;;;;4956009;28;20463;-66
2022/02/27 08:59:38;;;;;;;9.10;7.30;;;18.40;58.10;;;;;;4955679;28;20459;-66
2022/02/27 09:02:07;;;;;;;7.03;6.33;;;18.80;57.90;;;;;;4955767;28;20492;-66
2022/02/27 09:04:34;;;;;;;6.97;6.20;;;18.90;57.10;;;;;;4956277;28;20488;-66
2022/02/27 09:07:01;;;;;;;10.80;6.70;;;18.80;58.40;;;;;;4955694;28;20466;-67
2022/02/27 09:09:27;;;;;;;6.93;6.17;;;18.60;57.10;;;;;;4955760;28;20534;-66
2022/02/27 09:11:54;;;;;;;7.47;6.80;;;18.80;54.90;;;;;;4955953;28;20476;-66
2022/02/27 09:14:21;;;;;;;7.07;6.30;;;18.40;55.60;;;;;;4955779;28;20460;-65
2022/02/27 09:16:47;;;;;;;7.23;6.53;;;18.20;57.70;;;;;;4955569;28;20456;-65
2022/02/27 09:19:15;;;;;;;6.90;6.20;;;18.50;56.20;;;;;;4955165;28;20947;-65
2022/02/27 09:21:42;;;;;;;5.30;4.90;;;19.10;56.90;;;;;;4955325;28;20484;-66
2022/02/27 09:24:09;;;;;;;5.63;5.13;;;19.50;53.80;;;;;;4955501;28;20463;-65
2022/02/27 09:26:36;;;;;;;5.83;5.30;;;19.50;52.60;;;;;;4955761;28;20463;-65
2022/02/27 09:29:02;;;;;;;5.07;4.60;;;19.10;52.40;;;;;;4955549;28;20497;-65
2022/02/27 09:31:29;;;;;;;6.17;5.23;;;18.60;52.30;;;;;;4955549;28;20975;-65
2022/02/27 09:33:56;;;;;;;5.40;4.90;;;18.20;52.30;;;;;;4955492;28;20460;-66
2022/02/27 09:36:26;;;;;;;6.13;5.03;;;17.50;52.30;;;;;;4955564;28;20502;-65
2022/02/27 09:38:53;;;;;;;6.73;5.27;;;16.60;54.10;;;;;;4955590;28;20456;-65
2022/02/27 09:41:19;;;;;;;5.27;4.53;;;16.80;54.80;;;;;;4955526;28;20487;-65
2022/02/27 09:43:53;;;;;;;6.93;4.20;;;16.70;54.70;;;;;;4955575;28;20458;-66
2022/02/27 09:46:20;;;;;;;5.73;5.23;;;16.70;55.10;;;;;;4955439;28;20523;-67
2022/02/27 09:48:47;;;;;;;6.63;5.20;;;17.10;59.10;;;;;;4955580;28;20872;-67
2022/02/27 09:51:14;;;;;;;5.60;5.10;;;17.30;55.00;;;;;;4956328;28;20487;-66
2022/02/27 09:53:43;;;;;;;5.33;4.83;;;17.60;53.40;;;;;;4956094;28;20460;-66
2022/02/27 09:56:10;;;;;;;8.10;5.97;;;17.00;53.20;;;;;;4955488;28;20436;-66
2022/02/27 09:58:37;;;;;;;7.47;6.70;;;16.70;54.20;;;;;;4955357;28;20459;-67
2022/02/27 10:01:04;;;;;;;6.60;4.57;;;16.50;53.70;;;;;;4954823;28;20543;-65
2022/02/27 10:03:32;;;;;;;4.90;4.37;;;16.10;53.20;;;;;;4955349;28;20460;-66
2022/02/27 10:06:04;;;;;;;5.90;4.20;;;15.80;53.40;;;;;;4955426;28;20479;-67
2022/02/27 10:08:38;;;;;;;4.63;4.23;;;15.30;53.10;;;;;;4955309;28;20507;-67
2022/02/27 10:11:06;;;;;;;4.70;3.87;;;15.00;53.90;;;;;;4958484;28;20482;-67
2022/02/27 10:13:35;;;;;;;4.93;4.50;;;15.20;54.10;;;;;;4958283;28;20455;-67
2022/02/27 10:16:06;;;;;;;4.13;3.83;;;15.60;54.00;;;;;;4958257;28;20459;-66
2022/02/27 10:18:41;;;;;;;3.90;3.40;;;16.10;53.90;;;;;;4958324;28;20456;-66
2022/02/27 10:21:22;;;;;;;4.23;3.83;;;16.80;51.40;;;;;;4957972;28;20978;-66
2022/02/27 10:23:57;;;;;;;4.83;4.17;;;16.50;51.00;;;;;;4958407;28;20444;-67
2022/02/27 10:26:28;;;;;;;4.33;3.87;;;16.30;52.10;;;;;;4957926;28;21030;-67
2022/02/27 10:29:09;;;;;;;4.83;4.40;;;16.10;50.60;;;;;;4958326;28;20451;-66
2022/02/27 10:31:37;;;;;;;5.60;3.87;;;16.20;51.90;;;;;;4958752;28;20476;-67
2022/02/27 10:34:17;;;;;;;4.70;4.30;;;16.80;51.40;;;;;;4958169;28;20467;-67
2022/02/27 10:36:55;;;;;;;6.27;3.90;;;17.50;49.60;;;;;;4958226;28;20548;-67
2022/02/27 10:39:33;;;;;;;5.77;5.17;;;17.00;48.60;;;;;;4958035;28;20463;-66
2022/02/27 10:42:10;;;;;;;5.77;4.50;;;16.90;50.30;;;;;;4957583;28;20483;-66
2022/02/27 10:44:38;;;;;;;8.10;6.13;;;17.00;50.40;;;;;;4958892;28;20454;-66
2022/02/27 10:47:16;;;;;;;5.23;4.10;;;16.70;50.80;;;;;;4959738;28;20973;-66
2022/02/27 10:49:45;;;;;;;4.90;4.10;;;16.50;49.80;;;;;;4959453;28;20440;-67
2022/02/27 10:52:18;;;;;;;3.70;3.17;;;16.70;49.00;;;;;;4957814;28;20499;-68
2022/02/27 10:54:47;;;;;;;3.83;3.37;;;16.30;48.70;;;;;;4957688;28;20444;-67
2022/02/27 10:57:31;;;;;;;5.23;3.77;;;16.10;48.50;;;;;;4957504;28;20530;-67
2022/02/27 11:00:05;;;;;;;3.30;2.90;;;16.10;49.20;;;;;;4957762;28;20443;-66
2022/02/27 11:02:34;;;;;;;5.20;4.07;;;16.20;48.30;;;;;;4957354;28;20495;-67
2022/02/27 11:05:02;;;;;;;3.90;3.60;;;15.50;48.20;;;;;;4957538;28;20503;-67
2022/02/27 11:07:29;;;;;;;4.93;3.30;;;14.80;48.70;;;;;;4957668;28;20467;-67
2022/02/27 11:09:56;;;;;;;5.33;3.80;;;14.20;49.90;;;;;;4957541;28;20456;-67
2022/02/27 11:12:23;;;;;;;5.27;3.50;;;13.80;50.50;;;;;;4957417;28;20483;-67
2022/02/27 11:14:53;;;;;;;5.00;3.53;;;13.40;51.70;;;;;;4957612;28;20456;-66
2022/02/27 11:17:20;;;;;;;4.27;3.10;;;13.40;53.30;;;;;;4957590;28;20492;-66
2022/02/27 11:19:47;;;;;;;6.30;3.50;;;13.30;53.10;;;;;;4958096;28;20543;-67
2022/02/27 11:22:15;;;;;;;4.67;3.30;;;13.50;54.30;;;;;;4957430;28;20487;-67
2022/02/27 11:24:43;;;;;;;4.23;3.73;;;13.20;53.20;;;;;;4958185;28;20805;-66
2022/02/27 11:27:11;;;;;;;4.23;3.50;;;13.00;55.80;;;;;;4957588;28;20448;-66
2022/02/27 11:29:39;;;;;;;3.70;3.10;;;12.90;55.70;;;;;;4957198;28;20478;-67
2022/02/27 11:32:08;;;;;;;4.77;3.87;;;12.70;56.70;;;;;;4957050;28;20531;-67
2022/02/27 11:34:41;;;;;;;3.60;3.30;;;12.70;56.60;;;;;;4957084;28;20463;-66
2022/02/27 11:37:08;;;;;;;6.83;3.77;;;12.40;56.20;;;;;;4957281;28;20436;-67
2022/02/27 11:42:48;;;;;;;3.67;3.37;;;11.90;56.90;;;;;;4951469;28;20471;-67
2022/02/27 11:45:19;;;;;;;3.73;3.43;;;11.60;57.50;;;;;;4957056;28;20890;-68
2022/02/27 11:47:53;;;;;;;3.83;3.43;;;11.60;58.30;;;;;;4957025;28;20440;-66
2022/02/27 11:50:26;;;;;;;4.00;3.60;;;11.50;59.20;;;;;;4956549;28;20447;-66
2022/02/27 11:52:53;;;;;;;3.70;3.37;;;11.60;57.70;;;;;;4956613;28;20482;-65
2022/02/27 11:55:42;;;;;;;4.00;3.70;;;11.70;57.40;;;;;;4956713;28;20479;-66
2022/02/27 11:58:19;;;;;;;4.40;4.00;;;11.90;57.40;;;;;;4952559;28;20466;-67
2022/02/27 12:00:47;;;;;;;4.53;3.90;;;11.80;53.60;;;;;;4956459;28;21030;-67
2022/02/27 12:03:38;;;;;;;4.13;3.53;;;11.20;53.30;;;;;;4956187;28;20955;-67
2022/02/27 12:06:09;;;;;;;4.43;3.70;;;10.80;54.20;;;;;;4956420;28;20479;-67
2022/02/27 12:08:43;;;;;;;4.83;3.80;;;10.50;55.20;;;;;;4956403;28;20437;-67
2022/02/27 12:11:40;;;;;;;3.40;2.97;;;10.80;57.10;;;;;;4956023;28;20986;-67
2022/02/27 12:14:08;;;;;;;6.33;4.47;;;10.60;55.20;;;;;;4897077;29;20951;-67
2022/02/27 12:16:37;;;;;;;3.80;3.43;;;10.80;55.40;;;;;;4942873;28;20951;-67
2022/02/27 12:19:19;;;;;;;3.80;3.23;;;10.80;56.20;;;;;;4956362;28;20462;-67
2022/02/27 12:21:46;;;;;;;3.70;3.40;;;10.90;55.50;;;;;;4956220;28;20476;-67
2022/02/27 12:24:14;;;;;;;4.77;3.67;;;11.00;55.90;;;;;;4955900;28;20974;-67
2022/02/27 12:26:48;;;;;;;3.33;3.03;;;11.00;55.50;;;;;;4957484;28;20580;-67
2022/02/27 12:29:36;;;;;;;5.80;3.70;;;10.90;54.70;;;;;;4957335;28;20539;-67
2022/02/27 12:32:12;;;;;;;3.60;3.27;;;10.80;55.60;;;;;;4955827;28;20486;-67
2022/02/27 12:34:43;;;;;;;3.70;3.20;;;10.90;56.20;;;;;;4956142;28;20444;-67
2022/02/27 12:37:10;;;;;;;4.20;3.63;;;10.90;56.20;;;;;;4956323;28;20446;-67
2022/02/27 12:39:41;;;;;;;6.63;4.63;;;10.80;56.00;;;;;;4955920;28;20464;-67
2022/02/27 12:42:10;;;;;;;4.07;3.67;;;11.00;57.70;;;;;;4956424;28;20483;-68
2022/02/27 12:44:38;;;;;;;4.20;3.50;;;11.30;59.10;;;;;;4955926;28;20966;-68
2022/02/27 12:47:08;;;;;;;7.33;4.10;;;11.50;58.60;;;;;;4956042;28;20477;-67
2022/02/27 12:52:24;;;;;;;9.10;3.90;;;12.20;64.70;;;;;;4956258;29;20462;-67
2022/02/27 12:54:53;;;;;;;4.60;4.20;;;12.30;72.70;;;;;;4958834;28;20459;-67
2022/02/27 12:57:20;;;;;;;5.77;3.40;;;12.50;67.30;;;;;;4955911;28;20463;-66
2022/02/27 12:59:48;;;;;;;4.23;3.50;;;12.50;64.00;;;;;;4955809;28;20828;-67
2022/02/27 13:02:17;;;;;;;4.50;3.80;;;12.70;62.20;;;;;;4955610;28;20483;-67
2022/02/27 13:04:45;;;;;;;4.40;4.00;;;12.70;64.00;;;;;;4955978;28;20454;-67
2022/02/27 13:07:14;;;;;;;4.30;3.60;;;12.80;58.50;;;;;;4955870;28;20484;-66
2022/02/27 13:09:45;;;;;;;11.57;8.17;;;12.60;56.30;;;;;;4955755;28;20464;-67
2022/02/27 13:12:14;;;;;;;4.17;3.87;;;12.60;61.30;;;;;;4955740;28;20511;-65
2022/02/27 13:14:44;;;;;;;4.37;3.70;;;12.50;57.90;;;;;;4956478;28;20452;-67
2022/02/27 13:17:13;;;;;;;3.80;3.50;;;12.30;56.80;;;;;;4956031;28;20884;-67
2022/02/27 13:19:40;;;;;;;5.27;3.60;;;12.20;56.40;;;;;;4955938;28;20451;-66
2022/02/27 13:22:10;;;;;;;5.10;3.43;;;12.30;56.60;;;;;;4955826;28;20479;-67
2022/02/27 13:24:40;;;;;;;3.60;3.27;;;12.10;56.40;;;;;;4955764;28;20459;-67
2022/02/27 13:27:10;;;;;;;3.23;3.03;;;12.20;55.50;;;;;;4955773;28;20468;-66
2022/02/27 13:29:52;;;;;;;5.40;3.70;;;12.20;56.20;;;;;;4955712;28;20455;-66
2022/02/27 13:32:20;;;;;;;5.07;3.50;;;12.10;55.40;;;;;;4955600;28;20475;-67
2022/02/27 13:34:48;;;;;;;4.43;4.03;;;12.10;55.10;;;;;;4955238;28;20955;-67
2022/02/27 13:37:14;;;;;;;4.20;3.80;;;12.00;55.20;;;;;;4955686;28;20467;-67
2022/02/27 13:39:41;;;;;;;4.33;3.93;;;11.80;55.50;;;;;;4955581;28;20554;-66
2022/02/27 13:42:20;;;;;;;4.30;3.30;;;11.70;55.10;;;;;;4955441;28;20498;-66
2022/02/27 13:44:47;;;;;;;4.03;3.53;;;11.80;57.10;;;;;;4957441;28;20850;-66
2022/02/27 13:47:23;;;;;;;4.10;3.80;;;11.90;55.20;;;;;;4959246;28;20487;-67
2022/02/27 13:49:50;;;;;;;4.30;3.87;;;12.10;56.10;;;;;;4959305;28;20851;-67
2022/02/27 13:52:20;;;;;;;3.43;2.93;;;12.10;57.10;;;;;;4959029;28;20543;-67
2022/02/27 13:54:48;;;;;;;4.47;3.70;;;12.00;54.60;;;;;;4959032;28;20495;-67
2022/02/27 13:57:18;;;;;;;3.77;3.00;;;11.90;54.00;;;;;;4958844;28;20456;-67
2022/02/27 13:59:48;;;;;;;3.80;3.33;;;11.80;53.70;;;;;;4958785;28;20432;-68
2022/02/27 14:02:29;;;;;;;3.10;2.83;;;11.80;54.10;;;;;;4958670;28;20910;-66
2022/02/27 14:05:16;;;;;;;4.30;2.70;;;11.70;54.00;;;;;;4958852;28;20444;-66
2022/02/27 14:07:46;;;;;;;3.77;3.47;;;11.70;52.90;;;;;;4958742;28;20468;-67
2022/02/27 14:10:22;;;;;;;3.13;2.93;;;11.60;52.80;;;;;;4958573;28;20463;-67
2022/02/27 14:13:04;;;;;;;3.17;2.57;;;11.60;52.60;;;;;;4958494;28;20443;-68
2022/02/27 14:15:34;;;;;;;3.80;2.87;;;11.60;54.20;;;;;;4958481;29;20515;-67
2022/02/27 14:18:16;;;;;;;3.50;3.20;;;11.50;54.10;;;;;;4958586;28;20439;-67
2022/02/27 14:20:43;;;;;;;3.83;3.40;;;11.30;54.10;;;;;;4958390;28;20566;-66
2022/02/27 14:23:13;;;;;;;6.10;4.40;;;11.60;62.70;;;;;;4959861;28;20459;-67
2022/02/27 14:25:48;;;;;;;4.43;3.00;;;11.60;67.20;;;;;;4958651;28;20908;-65
2022/02/27 14:28:16;;;;;;;4.33;3.20;;;11.70;58.10;;;;;;4959602;28;20451;-66
2022/02/27 14:30:44;;;;;;;4.70;3.03;;;11.70;54.90;;;;;;4958525;28;20511;-66
2022/02/27 14:33:12;;;;;;;3.47;2.97;;;11.60;52.80;;;;;;4959713;28;20455;-66
2022/02/27 14:35:41;;;;;;;2.47;2.37;;;11.40;53.20;;;;;;4962037;28;20466;-67
2022/02/27 14:38:08;;;;;;;3.17;2.90;;;11.30;53.40;;;;;;4962287;28;20451;-66
2022/02/27 14:40:35;;;;;;;3.70;3.40;;;11.20;53.50;;;;;;4961793;28;20496;-66
2022/02/27 14:43:03;;;;;;;4.60;3.33;;;11.10;53.80;;;;;;4958966;28;20970;-67
2022/02/27 14:45:33;;;;;;;2.90;2.70;;;11.10;54.20;;;;;;4958383;28;20452;-67
2022/02/27 14:48:01;;;;;;;5.97;3.83;;;11.00;54.90;;;;;;4958610;28;20468;-68
2022/02/27 14:50:28;;;;;;;4.23;3.83;;;11.00;54.00;;;;;;4958725;28;20456;-67
2022/02/27 14:52:55;;;;;;;3.13;2.93;;;10.90;54.70;;;;;;4958268;28;20518;-66
2022/02/27 14:55:21;;;;;;;3.40;2.70;;;10.80;54.00;;;;;;4957838;28;20456;-66
2022/02/27 14:57:49;;;;;;;4.10;2.80;;;10.80;54.50;;;;;;4957495;28;20854;-66
2022/02/27 15:00:17;;;;;;;3.40;2.97;;;11.00;54.60;;;;;;4958063;28;20482;-66
2022/02/27 15:02:45;;;;;;;3.90;3.30;;;11.10;55.70;;;;;;4958231;28;20444;-66
2022/02/27 15:05:13;;;;;;;3.17;2.83;;;11.30;55.00;;;;;;4958097;28;20463;-66
2022/02/27 15:07:41;;;;;;;3.07;2.87;;;11.40;54.30;;;;;;4957652;28;20503;-66
2022/02/27 15:10:09;;;;;;;4.50;3.20;;;11.30;55.50;;;;;;4958114;28;20444;-66
2022/02/27 15:12:36;;;;;;;4.40;3.43;;;11.00;55.30;;;;;;4957455;28;20476;-66
2022/02/27 15:15:03;;;;;;;4.10;2.90;;;10.90;55.20;;;;;;4958018;28;20459;-66
2022/02/27 15:17:30;;;;;;;2.63;2.53;;;10.80;54.80;;;;;;4957739;28;20474;-66
2022/02/27 15:19:59;;;;;;;3.80;2.70;;;10.70;54.60;;;;;;4958031;28;20459;-66
2022/02/27 15:22:26;;;;;;;4.87;3.47;;;10.60;54.20;;;;;;4957484;28;20479;-67
2022/02/27 15:24:53;;;;;;;4.13;3.80;;;10.40;55.10;;;;;;4957545;28;20460;-67
2022/02/27 15:27:20;;;;;;;3.43;3.10;;;10.20;54.90;;;;;;4957556;28;20539;-67
2022/02/27 15:29:46;;;;;;;4.87;3.33;;;10.30;55.20;;;;;;4958035;28;20451;-65
2022/02/27 15:32:13;;;;;;;3.83;3.20;;;10.10;54.70;;;;;;4957346;28;20475;-66
2022/02/27 15:34:43;;;;;;;3.23;2.93;;;9.80;56.10;;;;;;4957570;28;20466;-66
2022/02/27 15:37:13;;;;;;;4.20;3.10;;;9.70;57.30;;;;;;4957557;28;20479;-66
2022/02/27 15:39:40;;;;;;;3.80;3.40;;;9.70;57.50;;;;;;4957331;28;20464;-66
2022/02/27 15:42:07;;;;;;;4.53;3.50;;;9.60;57.70;;;;;;4957063;28;20487;-67
2022/02/27 15:44:34;;;;;;;4.53;3.17;;;9.50;57.10;;;;;;4957002;28;20518;-66
2022/02/27 15:47:04;;;;;;;3.10;2.90;;;9.20;57.70;;;;;;4956874;28;20468;-67
2022/02/27 15:49:31;;;;;;;4.40;3.53;;;9.10;57.90;;;;;;4957248;28;20449;-67
2022/02/27 15:51:58;;;;;;;3.83;2.70;;;8.90;58.70;;;;;;4957150;28;20486;-67
2022/02/27 15:54:26;;;;;;;3.40;3.07;;;8.90;59.40;;;;;;4957056;28;20459;-67
2022/02/27 15:56:52;;;;;;;4.20;3.23;;;8.80;59.20;;;;;;4957618;28;21035;-67
2022/02/27 15:59:19;;;;;;;4.20;3.77;;;8.80;60.20;;;;;;4963097;28;20487;-67
2022/02/27 16:01:46;;;;;;;3.80;3.50;;;8.80;61.00;;;;;;4957297;28;20491;-68
2022/02/27 16:04:12;;;;;;;3.40;3.10;;;8.80;61.30;;;;;;4956859;28;20482;-68
2022/02/27 16:06:39;;;;;;;3.30;3.00;;;8.70;62.10;;;;;;4955996;28;20484;-68
2022/02/27 16:09:06;;;;;;;3.90;3.53;;;8.70;62.60;;;;;;4956204;28;20463;-67
2022/02/27 16:11:35;;;;;;;4.30;3.83;;;8.60;61.90;;;;;;4956945;28;20480;-68
2022/02/27 16:14:03;;;;;;;4.17;3.77;;;8.50;65.60;;;;;;4959583;28;20457;-69
2022/02/27 16:16:29;;;;;;;4.13;3.40;;;8.70;76.80;;;;;;4959833;28;20460;-70
2022/02/27 16:18:56;;;;;;;3.17;2.90;;;8.80;76.70;;;;;;4957606;28;20459;-69
2022/02/27 16:21:23;;;;;;;3.37;3.17;;;8.80;73.30;;;;;;4956258;28;20498;-68
2022/02/27 16:23:50;;;;;;;3.93;3.63;;;9.00;72.30;;;;;;4956272;28;20463;-68
2022/02/27 16:26:16;;;;;;;3.77;3.30;;;8.80;64.10;;;;;;4956477;28;20530;-68
2022/02/27 16:28:44;;;;;;;3.80;3.50;;;8.70;64.20;;;;;;4956444;28;20452;-69
2022/02/27 16:31:11;;;;;;;5.00;3.80;;;8.60;65.50;;;;;;4956254;28;20480;-68
2022/02/27 16:33:38;;;;;;;4.27;3.87;;;8.30;64.10;;;;;;4957011;28;20444;-68
2022/02/27 16:36:06;;;;;;;4.03;3.73;;;8.30;64.40;;;;;;4956232;28;20467;-69
2022/02/27 16:38:33;;;;;;;4.93;3.80;;;8.10;65.20;;;;;;4955900;28;20456;-69
2022/02/27 16:41:00;;;;;;;4.47;4.07;;;7.90;66.00;;;;;;4955689;28;21006;-68
2022/02/27 16:43:27;;;;;;;5.60;4.63;;;7.80;65.80;;;;;;4956113;28;20460;-69
2022/02/27 16:45:55;;;;;;;4.87;4.20;;;7.70;66.70;;;;;;4956219;28;20452;-69
2022/02/27 16:48:22;;;;;;;3.90;3.53;;;7.70;66.70;;;;;;4955847;28;21014;-67
2022/02/27 16:50:49;;;;;;;5.77;3.87;;;7.50;67.00;;;;;;4956932;28;20482;-67
2022/02/27 16:53:17;;;;;;;3.87;3.57;;;7.50;68.10;;;;;;4956042;28;20494;-67
2022/02/27 16:55:44;;;;;;;5.20;4.80;;;7.50;67.80;;;;;;4956316;28;20444;-67
2022/02/27 16:58:11;;;;;;;8.33;4.73;;;7.40;68.00;;;;;;4955913;28;20944;-67
2022/02/27 17:00:38;;;;;;;8.53;6.80;;;7.40;68.30;;;;;;4955871;28;20550;-67
2022/02/27 17:03:06;;;;;;;6.03;5.43;;;7.30;68.70;;;;;;4956218;28;20810;-67
2022/02/27 17:05:33;;;;;;;10.63;5.00;;;7.20;68.80;;;;;;4957746;28;20499;-68
2022/02/27 17:07:59;;;;;;;4.13;3.83;;;7.10;69.10;;;;;;4956569;28;20836;-68
2022/02/27 17:10:26;;;;;;;7.10;6.40;;;7.10;69.30;;;;;;4958450;28;20471;-68
2022/02/27 17:12:54;;;;;;;6.03;5.10;;;7.00;69.40;;;;;;4957793;28;20444;-68
2022/02/27 17:15:20;;;;;;;7.27;5.37;;;7.00;69.40;;;;;;4956688;28;21002;-68
2022/02/27 17:17:47;;;;;;;5.80;4.70;;;6.90;69.30;;;;;;4956967;28;20456;-68
2022/02/27 17:20:15;;;;;;;5.33;4.77;;;6.80;70.10;;;;;;4961063;28;20460;-68
2022/02/27 17:22:42;;;;;;;6.30;5.70;;;6.80;70.40;;;;;;4960696;28;20460;-67
2022/02/27 17:25:10;;;;;;;6.93;6.23;;;6.70;70.40;;;;;;4961558;28;20463;-68
2022/02/27 17:27:37;;;;;;;8.80;6.13;;;6.70;71.10;;;;;;4961448;28;20463;-68
2022/02/27 17:30:07;;;;;;;6.33;5.00;;;6.70;71.20;;;;;;4961049;28;20490;-68
2022/02/27 17:32:34;;;;;;;7.17;5.00;;;6.60;71.60;;;;;;4962437;28;20480;-68
2022/02/27 17:35:02;;;;;;;7.63;6.83;;;6.60;71.70;;;;;;4962062;28;20455;-67
2022/02/27 17:37:30;;;;;;;6.77;5.67;;;6.50;72.10;;;;;;4959542;28;20486;-67
2022/02/27 17:39:59;;;;;;;8.63;5.77;;;6.40;72.70;;;;;;4961057;28;20455;-67
2022/02/27 17:42:26;;;;;;;6.20;5.20;;;6.40;72.30;;;;;;4962861;28;20566;-68
2022/02/27 17:44:53;;;;;;;6.50;5.30;;;6.40;72.60;;;;;;4960753;28;20456;-68
2022/02/27 17:47:20;;;;;;;6.20;5.60;;;6.40;73.60;;;;;;4960295;28;20479;-67
2022/02/27 17:49:46;;;;;;;5.77;4.77;;;6.30;73.20;;;;;;4960806;28;20479;-67
2022/02/27 17:52:13;;;;;;;7.93;5.57;;;6.30;73.20;;;;;;4960507;28;20479;-66
2022/02/27 17:54:41;;;;;;;5.83;5.33;;;6.30;73.80;;;;;;4960762;28;20456;-67
2022/02/27 17:57:08;;;;;;;6.30;4.93;;;6.20;73.80;;;;;;4960109;28;20452;-66
2022/02/27 17:59:34;;;;;;;6.17;5.37;;;6.10;74.40;;;;;;4959980;28;20459;-66
2022/02/27 18:02:01;;;;;;;6.80;5.70;;;6.10;74.30;;;;;;4959748;28;21032;-66
2022/02/27 18:04:28;;;;;;;6.83;5.50;;;6.10;74.90;;;;;;4958951;28;20456;-68